createdAt,value
2022-11-20T00:01:58.466Z,55.54
2022-11-20T00:04:26.680Z,55.32
2022-11-20T00:06:54.748Z,55.64
2022-11-20T00:09:29.104Z,55.19
2022-11-20T00:11:57.279Z,55.72
2022-11-20T00:14:25.277Z,55.49
2022-11-20T00:16:53.246Z,55.42
2022-11-20T00:19:21.839Z,55.50
2022-11-20T00:21:52.496Z,55.58
2022-11-20T00:24:20.688Z,55.42
2022-11-20T00:26:49.050Z,55.51
2022-11-20T00:29:16.858Z,55.58
2022-11-20T00:31:44.736Z,55.80
2022-11-20T00:34:13.197Z,55.57
2022-11-20T00:36:41.010Z,55.65
2022-11-20T00:39:08.912Z,55.64
2022-11-20T00:41:37.001Z,55.90
2022-11-20T00:44:05.717Z,55.61
2022-11-20T00:46:33.765Z,55.62
2022-11-20T00:49:02.086Z,55.47
2022-11-20T00:51:30.348Z,55.41
2022-11-20T00:54:01.165Z,55.59
2022-11-20T00:56:29.855Z,55.62
2022-11-20T00:59:02.071Z,55.58
2022-11-20T01:01:31.404Z,55.69
2022-11-20T01:04:01.246Z,55.89
2022-11-20T01:06:37.526Z,55.56
2022-11-20T01:09:11.110Z,55.75
2022-11-20T01:11:43.854Z,55.73
2022-11-20T01:14:19.015Z,55.59
2022-11-20T01:16:51.376Z,55.68
2022-11-20T01:19:23.287Z,55.75
2022-11-20T01:21:55.015Z,55.65
2022-11-20T01:24:24.129Z,55.74
2022-11-20T01:26:53.058Z,55.52
2022-11-20T01:29:24.594Z,55.80
2022-11-20T01:31:53.793Z,55.58
2022-11-20T01:34:23.450Z,55.99
2022-11-20T01:36:53.052Z,55.69
2022-11-20T01:39:27.415Z,55.77
2022-11-20T01:42:15.682Z,56.05
2022-11-20T01:44:52.807Z,55.87
2022-11-20T01:47:45.066Z,55.83
2022-11-20T01:50:20.684Z,56.50
2022-11-20T01:53:12.612Z,56.13
2022-11-20T01:55:50.109Z,56.27
2022-11-20T01:58:26.222Z,56.02
2022-11-20T02:00:54.137Z,56.40
2022-11-20T02:03:22.270Z,56.34
2022-11-20T02:05:59.113Z,55.93
2022-11-20T02:08:27.825Z,56.24
2022-11-20T02:10:55.966Z,56.18
2022-11-20T02:13:45.578Z,56.20
2022-11-20T02:16:28.825Z,56.07
2022-11-20T02:19:00.889Z,56.14
2022-11-20T02:21:50.387Z,56.33
2022-11-20T02:24:23.726Z,56.20
2022-11-20T02:26:59.190Z,56.24
2022-11-20T02:30:04.534Z,56.09
2022-11-20T02:32:37.588Z,56.42
2022-11-20T02:35:31.658Z,56.13
2022-11-20T02:38:03.503Z,56.46
2022-11-20T02:40:31.565Z,56.63
2022-11-20T02:42:59.476Z,56.53
2022-11-20T02:45:27.418Z,56.41
2022-11-20T02:47:55.770Z,56.73
2022-11-20T02:50:23.776Z,56.44
2022-11-20T02:52:51.679Z,56.40
2022-11-20T02:55:20.206Z,56.48
2022-11-20T02:57:47.920Z,56.81
2022-11-20T03:00:16.274Z,56.43
2022-11-20T03:02:44.293Z,56.53
2022-11-20T03:05:13.545Z,56.37
2022-11-20T03:07:41.915Z,56.67
2022-11-20T03:10:10.515Z,56.71
2022-11-20T03:12:38.242Z,57.00
2022-11-20T03:15:06.694Z,57.02
2022-11-20T03:17:34.542Z,57.17
2022-11-20T03:20:03.099Z,57.30
2022-11-20T03:22:31.899Z,57.28
2022-11-20T03:25:00.105Z,57.58
2022-11-20T03:27:33.870Z,57.66
2022-11-20T03:30:02.571Z,57.68
2022-11-20T03:32:30.895Z,57.60
2022-11-20T03:34:59.166Z,57.92
2022-11-20T03:37:28.177Z,57.77
2022-11-20T03:39:56.299Z,57.96
2022-11-20T03:42:45.668Z,57.62
2022-11-20T03:45:17.273Z,57.83
2022-11-20T03:47:46.586Z,57.79
2022-11-20T03:50:15.192Z,57.83
2022-11-20T03:52:43.644Z,57.84
2022-11-20T03:55:11.846Z,57.70
2022-11-20T03:57:42.584Z,57.84
2022-11-20T04:00:11.418Z,57.78
2022-11-20T04:02:39.513Z,57.96
2022-11-20T04:05:08.001Z,57.83
2022-11-20T04:07:36.414Z,57.90
2022-11-20T04:10:05.265Z,58.01
2022-11-20T04:12:35.078Z,57.91
2022-11-20T04:15:03.277Z,58.00
2022-11-20T04:17:31.404Z,57.95
2022-11-20T04:19:59.933Z,58.01
2022-11-20T04:22:28.269Z,57.76
2022-11-20T04:24:56.440Z,57.87
2022-11-20T04:27:25.015Z,57.83
2022-11-20T04:29:54.028Z,57.91
2022-11-20T04:32:22.272Z,58.16
2022-11-20T04:35:10.127Z,58.06
2022-11-20T04:37:37.923Z,58.10
2022-11-20T04:40:07.434Z,57.90
2022-11-20T04:42:35.682Z,57.90
2022-11-20T04:45:03.733Z,58.08
2022-11-20T04:47:31.823Z,58.00
2022-11-20T04:49:59.848Z,58.09
2022-11-20T04:52:27.702Z,57.93
2022-11-20T04:54:56.155Z,58.01
2022-11-20T04:57:25.231Z,58.03
2022-11-20T04:59:54.047Z,57.97
2022-11-20T05:02:23.382Z,58.21
2022-11-20T05:04:51.277Z,58.08
2022-11-20T05:07:20.074Z,58.18
2022-11-20T05:09:48.210Z,58.15
2022-11-20T05:12:16.505Z,58.29
2022-11-20T05:14:44.509Z,58.28
2022-11-20T05:17:13.479Z,58.16
2022-11-20T05:19:41.516Z,58.15
2022-11-20T05:22:09.428Z,58.19
2022-11-20T05:24:37.503Z,58.06
2022-11-20T05:27:06.052Z,57.99
2022-11-20T05:29:34.190Z,58.01
2022-11-20T05:32:02.062Z,58.13
2022-11-20T05:34:30.257Z,58.01
2022-11-20T05:36:59.572Z,58.15
2022-11-20T05:39:27.659Z,57.71
2022-11-20T05:42:14.205Z,57.87
2022-11-20T05:44:41.919Z,57.96
2022-11-20T05:47:09.834Z,57.94
2022-11-20T05:49:37.596Z,57.74
2022-11-20T05:52:05.681Z,57.90
2022-11-20T05:54:33.881Z,57.82
2022-11-20T05:57:01.739Z,57.87
2022-11-20T05:59:30.269Z,57.66
2022-11-20T06:01:58.374Z,57.66
2022-11-20T06:04:26.343Z,57.75
2022-11-20T06:06:54.489Z,58.04
2022-11-20T06:09:22.868Z,58.09
2022-11-20T06:11:50.775Z,57.92
2022-11-20T06:14:20.028Z,58.21
2022-11-20T06:16:48.547Z,58.09
2022-11-20T06:19:18.204Z,57.99
2022-11-20T06:21:46.448Z,58.22
2022-11-20T06:24:14.648Z,58.47
2022-11-20T06:26:43.636Z,58.49
2022-11-20T06:29:11.741Z,58.57
2022-11-20T06:31:42.017Z,58.25
2022-11-20T06:34:10.638Z,58.25
2022-11-20T06:36:39.498Z,58.43
2022-11-20T06:39:08.482Z,58.50
2022-11-20T06:41:37.724Z,58.36
2022-11-20T06:44:06.703Z,58.18
2022-11-20T06:46:35.028Z,58.33
2022-11-20T06:49:02.868Z,58.26
2022-11-20T06:51:31.048Z,58.44
2022-11-20T06:53:58.957Z,58.49
2022-11-20T06:56:26.662Z,58.46
2022-11-20T06:58:54.761Z,58.51
2022-11-20T07:01:23.105Z,58.50
2022-11-20T07:03:54.463Z,58.42
2022-11-20T07:06:22.528Z,58.53
2022-11-20T07:08:53.851Z,58.31
2022-11-20T07:11:22.049Z,58.65
2022-11-20T07:13:50.195Z,58.66
2022-11-20T07:16:18.689Z,58.59
2022-11-20T07:18:50.588Z,58.74
2022-11-20T07:21:19.144Z,58.29
2022-11-20T07:23:47.695Z,58.57
2022-11-20T07:26:15.949Z,58.66
2022-11-20T07:28:46.507Z,58.60
2022-11-20T07:31:19.075Z,58.62
2022-11-20T07:33:47.699Z,58.60
2022-11-20T07:36:19.472Z,58.68
2022-11-20T07:38:55.348Z,58.65
2022-11-20T07:41:23.297Z,58.54
2022-11-20T07:43:51.109Z,58.74
2022-11-20T07:46:19.443Z,58.55
2022-11-20T07:48:47.419Z,58.61
2022-11-20T07:51:15.504Z,58.95
2022-11-20T07:53:43.404Z,58.73
2022-11-20T07:56:11.260Z,58.74
2022-11-20T07:58:39.147Z,58.76
2022-11-20T08:01:09.099Z,58.95
2022-11-20T08:03:40.308Z,58.64
2022-11-20T08:06:08.923Z,58.79
2022-11-20T08:08:42.295Z,58.90
2022-11-20T08:11:29.524Z,58.81
2022-11-20T08:14:12.734Z,59.03
2022-11-20T08:16:46.630Z,58.67
2022-11-20T08:19:21.046Z,58.70
2022-11-20T08:21:49.177Z,59.04
2022-11-20T08:24:17.052Z,58.78
2022-11-20T08:26:45.914Z,58.92
2022-11-20T08:29:14.992Z,59.01
2022-11-20T08:31:43.082Z,58.92
2022-11-20T08:34:13.862Z,58.92
2022-11-20T08:36:45.591Z,59.10
2022-11-20T08:39:15.090Z,59.00
2022-11-20T08:41:42.991Z,59.27
2022-11-20T08:44:11.126Z,59.05
2022-11-20T08:46:42.531Z,59.03
2022-11-20T08:49:13.456Z,59.17
2022-11-20T08:51:42.295Z,59.35
2022-11-20T08:54:10.838Z,59.14
2022-11-20T08:56:38.685Z,59.24
2022-11-20T09:01:54.593Z,59.31
2022-11-20T09:04:22.469Z,59.48
2022-11-20T09:06:52.314Z,59.26
2022-11-20T09:09:21.605Z,59.44
2022-11-20T09:11:51.000Z,59.54
2022-11-20T09:14:18.799Z,59.20
2022-11-20T09:16:47.807Z,59.26
2022-11-20T09:22:04.311Z,59.55
2022-11-20T09:24:32.541Z,59.32
2022-11-20T09:27:04.441Z,59.58
2022-11-20T09:29:32.464Z,59.57
2022-11-20T09:32:00.440Z,59.68
2022-11-20T09:34:29.616Z,59.72
2022-11-20T09:37:01.553Z,59.80
2022-11-20T09:39:32.780Z,59.74
2022-11-20T09:42:16.306Z,59.57
2022-11-20T09:45:23.188Z,59.95
2022-11-20T09:48:53.667Z,59.83
2022-11-20T09:52:13.804Z,59.86
2022-11-20T09:54:45.554Z,60.13
2022-11-20T09:57:18.967Z,59.93
2022-11-20T10:00:02.094Z,59.93
2022-11-20T10:02:59.131Z,59.79
2022-11-20T10:05:53.538Z,59.57
2022-11-20T10:08:26.199Z,59.71
2022-11-20T10:11:17.041Z,59.53
2022-11-20T10:14:03.306Z,59.59
2022-11-20T10:16:52.907Z,59.58
2022-11-20T10:20:19.853Z,59.63
2022-11-20T10:23:04.631Z,59.68
2022-11-20T10:25:42.016Z,59.75
2022-11-20T10:28:59.879Z,59.66
2022-11-20T10:32:21.411Z,59.60
2022-11-20T10:35:21.234Z,59.69
2022-11-20T10:37:59.451Z,59.69
2022-11-20T10:40:44.561Z,59.78
2022-11-20T10:43:28.513Z,59.97
2022-11-20T10:46:06.041Z,59.86
2022-11-20T10:48:34.280Z,60.04
2022-11-20T10:51:38.040Z,59.90
2022-11-20T10:54:55.222Z,59.96
2022-11-20T10:57:55.046Z,60.03
2022-11-20T11:00:23.491Z,60.19
2022-11-20T11:02:57.371Z,60.10
2022-11-20T11:05:55.107Z,59.83
2022-11-20T11:08:24.746Z,60.04
2022-11-20T11:10:58.862Z,59.96
2022-11-20T11:13:30.436Z,59.90
2022-11-20T11:15:59.758Z,59.72
2022-11-20T11:18:34.537Z,59.39
2022-11-20T11:21:06.225Z,59.34
2022-11-20T11:23:40.996Z,59.53
2022-11-20T11:26:22.892Z,58.99
2022-11-20T11:29:04.367Z,59.07
2022-11-20T11:31:36.202Z,59.16
2022-11-20T11:34:15.842Z,58.71
2022-11-20T11:36:58.495Z,58.84
2022-11-20T11:39:29.998Z,58.66
2022-11-20T11:41:59.768Z,58.98
2022-11-20T11:44:54.032Z,58.45
2022-11-20T11:47:42.434Z,58.18
2022-11-20T11:50:10.531Z,58.34
2022-11-20T11:52:57.559Z,58.06
2022-11-20T11:56:05.495Z,58.28
2022-11-20T11:58:53.827Z,58.43
2022-11-20T12:01:42.176Z,58.30
2022-11-20T12:04:40.312Z,58.33
2022-11-20T12:07:51.684Z,57.93
2022-11-20T12:10:37.255Z,57.93
2022-11-20T12:13:35.291Z,57.32
2022-11-20T12:16:05.646Z,57.36
2022-11-20T12:18:35.086Z,56.78
2022-11-20T12:21:30.006Z,56.52
2022-11-20T12:24:35.709Z,56.15
2022-11-20T12:27:21.753Z,55.95
2022-11-20T12:29:59.230Z,55.54
2022-11-20T12:32:50.044Z,55.29
2022-11-20T12:35:46.508Z,54.81
2022-11-20T12:39:20.400Z,54.46
2022-11-20T12:42:30.217Z,54.54
2022-11-20T12:45:30.538Z,54.30
2022-11-20T12:48:23.834Z,53.91
2022-11-20T12:51:20.384Z,53.81
2022-11-20T12:54:29.135Z,53.95
2022-11-20T12:57:15.607Z,54.04
2022-11-20T13:00:19.136Z,53.82
2022-11-20T13:03:31.341Z,53.20
2022-11-20T13:06:14.325Z,53.12
2022-11-20T13:08:55.943Z,53.22
2022-11-20T13:11:51.997Z,52.91
2022-11-20T13:15:07.833Z,52.42
2022-11-20T13:17:47.715Z,52.84
2022-11-20T13:20:20.803Z,53.06
2022-11-20T13:23:02.656Z,52.76
2022-11-20T13:25:31.637Z,52.27
2022-11-20T13:28:20.822Z,51.80
2022-11-20T13:30:54.879Z,52.23
2022-11-20T13:33:37.062Z,51.78
2022-11-20T13:36:24.300Z,50.92
2022-11-20T13:38:56.142Z,51.24
2022-11-20T13:41:35.719Z,51.14
2022-11-20T13:44:10.777Z,51.02
2022-11-20T13:46:48.090Z,50.72
2022-11-20T13:49:45.275Z,50.46
2022-11-20T13:52:29.457Z,49.60
2022-11-20T13:55:03.618Z,49.80
2022-11-20T13:57:37.082Z,49.92
2022-11-20T14:00:25.752Z,49.94
2022-11-20T14:03:13.872Z,49.86
2022-11-20T14:05:54.098Z,49.94
2022-11-20T14:08:32.443Z,50.05
2022-11-20T14:11:26.631Z,50.04
2022-11-20T14:14:07.096Z,49.89
2022-11-20T14:16:40.216Z,49.90
2022-11-20T14:19:30.895Z,49.62
2022-11-20T14:22:24.657Z,49.85
2022-11-20T14:25:16.722Z,49.59
2022-11-20T14:27:51.695Z,49.99
2022-11-20T14:30:34.414Z,49.59
2022-11-20T14:33:05.271Z,49.88
2022-11-20T14:35:42.210Z,49.60
2022-11-20T14:38:15.617Z,49.64
2022-11-20T14:40:44.785Z,49.72
2022-11-20T14:43:29.252Z,49.48
2022-11-20T14:46:05.671Z,49.39
2022-11-20T14:49:01.484Z,49.24
2022-11-20T14:51:33.818Z,49.69
2022-11-20T14:54:23.554Z,49.40
2022-11-20T14:57:06.014Z,49.60
2022-11-20T14:59:36.912Z,49.78
2022-11-20T15:02:10.134Z,49.62
2022-11-20T15:04:52.848Z,49.35
2022-11-20T15:07:31.190Z,49.36
2022-11-20T15:10:04.001Z,49.43
2022-11-20T15:12:35.212Z,49.35
2022-11-20T15:15:06.703Z,49.44
2022-11-20T15:17:39.614Z,49.44
2022-11-20T15:20:18.159Z,49.27
2022-11-20T15:22:46.067Z,49.37
2022-11-20T15:25:19.595Z,49.23
2022-11-20T15:27:58.994Z,49.13
2022-11-20T15:30:29.304Z,49.32
2022-11-20T15:32:57.704Z,49.09
2022-11-20T15:35:26.144Z,49.38
2022-11-20T15:37:54.556Z,49.05
2022-11-20T15:40:23.136Z,49.10
2022-11-20T15:43:13.394Z,49.09
2022-11-20T15:45:49.865Z,49.09
2022-11-20T15:48:22.873Z,48.97
2022-11-20T15:51:08.276Z,48.89
2022-11-20T15:53:41.231Z,49.05
2022-11-20T15:56:18.474Z,49.02
2022-11-20T15:58:48.222Z,49.17
2022-11-20T16:01:21.126Z,48.98
2022-11-20T16:03:50.218Z,49.00
2022-11-20T16:06:18.530Z,48.89
2022-11-20T16:08:49.480Z,48.82
2022-11-20T16:11:19.439Z,48.74
2022-11-20T16:14:07.090Z,48.51
2022-11-20T16:16:40.190Z,48.70
2022-11-20T16:19:13.962Z,48.75
2022-11-20T16:21:42.978Z,48.65
2022-11-20T16:24:14.937Z,48.51
2022-11-20T16:26:43.335Z,48.59
2022-11-20T16:29:12.706Z,48.65
2022-11-20T16:32:00.432Z,48.68
2022-11-20T16:34:28.593Z,48.57
2022-11-20T16:36:56.710Z,48.58
2022-11-20T16:39:26.432Z,48.43
2022-11-20T16:41:54.275Z,48.41
2022-11-20T16:44:23.380Z,48.33
2022-11-20T16:46:51.656Z,48.37
2022-11-20T16:49:20.171Z,48.43
2022-11-20T16:51:48.539Z,48.25
2022-11-20T16:54:20.775Z,48.36
2022-11-20T16:56:52.238Z,48.32
2022-11-20T16:59:20.482Z,48.52
2022-11-20T17:01:48.973Z,48.49
2022-11-20T17:04:19.549Z,48.48
2022-11-20T17:06:48.306Z,48.29
2022-11-20T17:09:16.760Z,48.31
2022-11-20T17:11:46.816Z,48.37
2022-11-20T17:14:16.292Z,48.37
2022-11-20T17:16:45.467Z,48.13
2022-11-20T17:19:17.054Z,48.11
2022-11-20T17:21:48.205Z,48.31
2022-11-20T17:24:17.826Z,48.39
2022-11-20T17:26:49.284Z,48.47
2022-11-20T17:29:24.400Z,48.56
2022-11-20T17:31:55.148Z,48.78
2022-11-20T17:34:28.211Z,48.78
2022-11-20T17:36:59.616Z,48.78
2022-11-20T17:39:28.287Z,49.00
2022-11-20T17:42:15.025Z,48.92
2022-11-20T17:44:44.656Z,49.02
2022-11-20T17:47:12.817Z,49.21
2022-11-20T17:49:41.773Z,49.17
2022-11-20T17:52:10.103Z,49.25
2022-11-20T17:54:38.963Z,49.29
2022-11-20T17:57:27.735Z,49.21
2022-11-20T17:59:56.415Z,49.30
2022-11-20T18:02:25.412Z,49.23
2022-11-20T18:04:55.237Z,49.30
2022-11-20T18:07:26.612Z,49.41
2022-11-20T18:09:55.778Z,49.43
2022-11-20T18:12:25.511Z,49.44
2022-11-20T18:14:55.561Z,49.42
2022-11-20T18:17:26.869Z,49.51
2022-11-20T18:20:21.608Z,49.98
2022-11-20T18:22:44.222Z,49.92
2022-11-20T18:25:13.499Z,49.90
2022-11-20T18:27:42.495Z,50.08
2022-11-20T18:30:13.083Z,50.24
2022-11-20T18:32:43.246Z,50.23
2022-11-20T18:35:12.629Z,50.44
2022-11-20T18:37:43.024Z,50.39
2022-11-20T18:40:13.217Z,50.62
2022-11-20T18:43:01.322Z,50.77
2022-11-20T18:45:30.558Z,51.14
2022-11-20T18:47:59.353Z,51.17
2022-11-20T18:50:28.072Z,51.17
2022-11-20T18:52:57.707Z,51.23
2022-11-20T18:55:30.663Z,51.30
2022-11-20T18:58:05.510Z,51.45
2022-11-20T19:00:35.269Z,51.67
2022-11-20T19:03:06.426Z,51.57
2022-11-20T19:05:51.993Z,51.51
2022-11-20T19:08:27.877Z,51.80
2022-11-20T19:11:06.706Z,51.53
2022-11-20T19:13:37.523Z,51.86
2022-11-20T19:16:20.311Z,51.90
2022-11-20T19:18:57.247Z,51.86
2022-11-20T19:21:30.237Z,52.06
2022-11-20T19:24:03.415Z,52.08
2022-11-20T19:26:35.368Z,51.79
2022-11-20T19:29:25.987Z,51.91
2022-11-20T19:31:56.507Z,51.93
2022-11-20T19:34:29.053Z,52.17
2022-11-20T19:36:57.829Z,51.91
2022-11-20T19:39:27.624Z,52.24
2022-11-20T19:41:55.951Z,52.14
2022-11-20T19:44:24.877Z,52.32
2022-11-20T19:46:53.789Z,52.36
2022-11-20T19:49:22.454Z,52.35
2022-11-20T19:51:51.644Z,52.52
2022-11-20T19:54:23.291Z,52.42
2022-11-20T19:56:52.190Z,52.51
2022-11-20T19:59:20.511Z,52.58
2022-11-20T20:01:48.502Z,52.76
2022-11-20T20:04:16.804Z,52.77
2022-11-20T20:06:45.214Z,52.58
2022-11-20T20:09:13.942Z,52.64
2022-11-20T20:11:47.099Z,52.71
2022-11-20T20:14:18.533Z,52.83
2022-11-20T20:16:47.236Z,52.71
2022-11-20T20:19:16.394Z,52.92
2022-11-20T20:21:45.066Z,53.01
2022-11-20T20:24:14.250Z,52.74
2022-11-20T20:26:43.003Z,53.12
2022-11-20T20:29:12.073Z,53.08
2022-11-20T20:31:41.348Z,53.02
2022-11-20T20:34:11.462Z,53.16
2022-11-20T20:36:39.498Z,53.52
2022-11-20T20:39:07.498Z,53.41
2022-11-20T20:41:36.427Z,53.58
2022-11-20T20:44:22.956Z,53.50
2022-11-20T20:46:54.196Z,53.54
2022-11-20T20:49:25.506Z,53.57
2022-11-20T20:51:54.190Z,53.39
2022-11-20T20:54:22.149Z,53.60
2022-11-20T20:56:51.987Z,53.57
2022-11-20T20:59:20.121Z,53.80
2022-11-20T21:01:48.833Z,53.86
2022-11-20T21:04:17.660Z,53.74
2022-11-20T21:06:47.203Z,53.92
2022-11-20T21:09:15.487Z,53.90
2022-11-20T21:11:43.913Z,54.08
2022-11-20T21:14:12.725Z,54.20
2022-11-20T21:16:44.205Z,53.96
2022-11-20T21:19:12.266Z,54.19
2022-11-20T21:21:59.119Z,54.13
2022-11-20T21:24:28.759Z,54.11
2022-11-20T21:26:58.367Z,53.79
2022-11-20T21:29:28.473Z,53.86
2022-11-20T21:31:57.840Z,54.08
2022-11-20T21:34:26.439Z,54.05
2022-11-20T21:36:54.613Z,54.10
2022-11-20T21:39:22.811Z,54.28
2022-11-20T21:41:50.612Z,54.44
2022-11-20T21:44:33.836Z,54.32
2022-11-20T21:47:01.865Z,54.36
2022-11-20T21:49:29.711Z,54.10
2022-11-20T21:51:59.006Z,53.96
2022-11-20T21:54:27.082Z,54.23
2022-11-20T21:56:55.591Z,54.17
2022-11-20T21:59:23.881Z,53.93
2022-11-20T22:01:52.346Z,54.25
2022-11-20T22:04:21.452Z,54.20
2022-11-20T22:06:49.443Z,54.12
2022-11-20T22:09:17.306Z,53.97
2022-11-20T22:11:45.499Z,54.26
2022-11-20T22:14:23.749Z,54.26
2022-11-20T22:16:53.554Z,54.29
2022-11-20T22:19:23.399Z,54.33
2022-11-20T22:21:51.664Z,54.63
2022-11-20T22:24:22.288Z,54.37
2022-11-20T22:26:50.488Z,54.37
2022-11-20T22:29:38.534Z,54.68
2022-11-20T22:32:06.362Z,54.66
2022-11-20T22:34:34.396Z,54.47
2022-11-20T22:37:03.281Z,54.50
2022-11-20T22:39:31.222Z,54.69
2022-11-20T22:42:13.460Z,54.71
2022-11-20T22:44:41.429Z,54.88
2022-11-20T22:47:11.463Z,54.50
2022-11-20T22:49:40.825Z,54.50
2022-11-20T22:52:08.774Z,54.24
2022-11-20T22:54:36.599Z,54.49
2022-11-20T22:57:04.974Z,54.33
2022-11-20T22:59:32.950Z,54.66
2022-11-20T23:02:00.974Z,54.30
2022-11-20T23:04:28.784Z,54.49
2022-11-20T23:06:56.879Z,54.74
2022-11-20T23:09:25.197Z,54.33
2022-11-20T23:11:53.228Z,54.20
2022-11-20T23:14:26.350Z,54.21
2022-11-20T23:16:55.920Z,54.59
2022-11-20T23:19:24.444Z,54.55
2022-11-20T23:21:52.513Z,54.42
2022-11-20T23:24:20.400Z,54.59
2022-11-20T23:26:49.709Z,54.65
2022-11-20T23:29:18.112Z,54.80
2022-11-20T23:31:46.772Z,54.83
2022-11-20T23:34:14.751Z,55.01
2022-11-20T23:36:43.382Z,54.90
2022-11-20T23:39:11.317Z,55.09
2022-11-20T23:41:39.454Z,54.79
2022-11-20T23:44:07.641Z,54.88
2022-11-20T23:46:35.560Z,55.17
2022-11-20T23:49:03.848Z,54.75
2022-11-20T23:51:31.808Z,54.84
2022-11-20T23:54:04.478Z,54.40
2022-11-20T23:56:32.912Z,54.94
2022-11-20T23:59:00.706Z,54.61
